createdAt,value
2023-04-21T00:00:00.129Z,92642.25
2023-04-21T00:01:32.047Z,92632.31
2023-04-21T00:03:04.131Z,92646.50
2023-04-21T00:04:36.759Z,92636.59
2023-04-21T00:06:09.579Z,92635.28
2023-04-21T00:07:41.777Z,92634.50
2023-04-21T00:09:13.608Z,92633.25
2023-04-21T00:10:45.967Z,92634.34
2023-04-21T00:12:18.110Z,92625.38
2023-04-21T00:13:49.650Z,92628.56
2023-04-21T00:15:21.231Z,92634.72
2023-04-21T00:16:52.917Z,92634.91
2023-04-21T00:18:25.378Z,92635.69
2023-04-21T00:19:56.903Z,92636.78
2023-04-21T00:21:28.502Z,92631.53
2023-04-21T00:23:00.108Z,92640.19
2023-04-21T00:24:31.634Z,92633.53
2023-04-21T00:26:03.241Z,92643.25
2023-04-21T00:27:35.170Z,92636.75
2023-04-21T00:29:06.649Z,92637.63
2023-04-21T00:30:38.302Z,92629.22
2023-04-21T00:32:10.248Z,92629.81
2023-04-21T00:33:41.735Z,92629.59
2023-04-21T00:35:13.401Z,92630.03
2023-04-21T00:36:44.967Z,92630.63
2023-04-21T00:38:16.521Z,92627.44
2023-04-21T00:39:48.034Z,92626.69
2023-04-21T00:41:19.631Z,92628.56
2023-04-21T00:42:51.097Z,92629.03
2023-04-21T00:44:22.567Z,92627.34
2023-04-21T00:45:54.639Z,92623.88
2023-04-21T00:47:26.795Z,92630.03
2023-04-21T00:48:58.801Z,92620.41
2023-04-21T00:50:30.267Z,92626.25
2023-04-21T00:52:02.275Z,92619.81
2023-04-21T00:53:33.730Z,92628.63
2023-04-21T00:55:05.480Z,92621.41
2023-04-21T00:56:37.132Z,92630.22
2023-04-21T00:58:08.616Z,92627.25
2023-04-21T00:59:40.489Z,92623.47
2023-04-21T01:01:13.426Z,92620.19
2023-04-21T01:02:45.783Z,92620.47
2023-04-21T01:04:17.437Z,92617.00
2023-04-21T01:05:49.021Z,92620.78
2023-04-21T01:07:20.555Z,92618.91
2023-04-21T01:08:52.512Z,92619.69
2023-04-21T01:10:24.037Z,92620.69
2023-04-21T01:12:03.420Z,92615.34
2023-04-21T01:13:34.902Z,92613.75
2023-04-21T01:15:06.916Z,92615.91
2023-04-21T01:16:38.475Z,92612.75
2023-04-21T01:18:10.045Z,92620.78
2023-04-21T01:19:42.437Z,92611.84
2023-04-21T01:21:14.458Z,92608.38
2023-04-21T01:22:45.946Z,92615.34
2023-04-21T01:24:17.567Z,92621.47
2023-04-21T01:25:49.008Z,92612.94
2023-04-21T01:27:20.586Z,92615.63
2023-04-21T01:28:52.095Z,92615.63
2023-04-21T01:30:23.608Z,92614.03
2023-04-21T01:31:55.385Z,92622.88
2023-04-21T01:33:27.434Z,92618.50
2023-04-21T01:34:59.334Z,92617.22
2023-04-21T01:36:31.813Z,92612.44
2023-04-21T01:38:03.483Z,92615.75
2023-04-21T01:39:35.032Z,92606.13
2023-04-21T01:41:06.670Z,92608.31
2023-04-21T01:42:38.894Z,92612.88
2023-04-21T01:44:10.751Z,92612.97
2023-04-21T01:45:42.566Z,92609.03
2023-04-21T01:47:14.125Z,92612.00
2023-04-21T01:48:45.920Z,92613.59
2023-04-21T01:50:17.441Z,92609.31
2023-04-21T01:51:48.887Z,92613.09
2023-04-21T01:53:20.684Z,92613.16
2023-04-21T01:54:52.213Z,92609.53
2023-04-21T01:56:23.741Z,92616.56
2023-04-21T01:57:57.753Z,92615.56
2023-04-21T01:59:29.260Z,92608.94
2023-04-21T02:01:00.880Z,92604.97
2023-04-21T02:02:32.494Z,92605.25
2023-04-21T02:04:04.542Z,92605.56
2023-04-21T02:05:36.126Z,92603.16
2023-04-21T02:07:07.670Z,92610.63
2023-04-21T02:08:39.123Z,92606.16
2023-04-21T02:10:10.997Z,92601.88
2023-04-21T02:11:42.664Z,92602.50
2023-04-21T02:13:14.304Z,92609.53
2023-04-21T02:14:48.066Z,92602.38
2023-04-21T02:16:20.755Z,92601.59
2023-04-21T02:17:52.340Z,92597.81
2023-04-21T02:19:24.088Z,92612.31
2023-04-21T02:20:57.007Z,92606.63
2023-04-21T02:22:28.613Z,92601.59
2023-04-21T02:24:00.329Z,92606.75
2023-04-21T02:25:31.898Z,92610.81
2023-04-21T02:27:03.846Z,92607.63
2023-04-21T02:28:35.595Z,92604.16
2023-04-21T02:30:07.454Z,92604.16
2023-04-21T02:31:54.199Z,92603.88
2023-04-21T02:33:29.195Z,92607.91
2023-04-21T02:35:00.925Z,92607.44
2023-04-21T02:36:32.433Z,92609.31
2023-04-21T02:38:07.384Z,92607.75
2023-04-21T02:39:39.237Z,92607.22
2023-04-21T02:41:11.154Z,92604.06
2023-04-21T02:42:42.649Z,92610.50
2023-04-21T02:44:14.138Z,92608.72
2023-04-21T02:45:46.254Z,92611.47
2023-04-21T02:47:17.738Z,92608.00
2023-04-21T02:48:49.925Z,92604.81
2023-04-21T02:50:21.414Z,92611.75
2023-04-21T02:51:52.859Z,92613.34
2023-04-21T02:53:24.450Z,92614.94
2023-04-21T02:54:55.909Z,92612.78
2023-04-21T02:56:27.384Z,92611.69
2023-04-21T02:57:58.888Z,92608.22
2023-04-21T02:59:30.417Z,92612.78
2023-04-21T03:01:02.718Z,92617.03
2023-04-21T03:02:34.399Z,92615.72
2023-04-21T03:04:06.167Z,92617.31
2023-04-21T03:05:37.882Z,92612.16
2023-04-21T03:07:13.380Z,92621.31
2023-04-21T03:08:44.962Z,92613.34
2023-04-21T03:10:16.490Z,92615.03
2023-04-21T03:11:48.537Z,92619.56
2023-04-21T03:13:20.320Z,92616.44
2023-04-21T03:14:52.234Z,92620.19
2023-04-21T03:16:23.825Z,92615.41
2023-04-21T03:17:55.713Z,92621.34
2023-04-21T03:19:27.163Z,92618.47
2023-04-21T03:21:01.623Z,92627.88
2023-04-21T03:22:33.205Z,92626.00
2023-04-21T03:24:05.642Z,92627.63
2023-04-21T03:25:38.141Z,92621.50
2023-04-21T03:27:11.070Z,92624.97
2023-04-21T03:28:42.763Z,92630.69
2023-04-21T03:30:14.335Z,92620.78
2023-04-21T03:31:46.158Z,92629.28
2023-04-21T03:33:17.668Z,92626.34
2023-04-21T03:34:50.472Z,92619.72
2023-04-21T03:36:21.985Z,92621.28
2023-04-21T03:37:54.012Z,92633.56
2023-04-21T03:39:25.985Z,92620.91
2023-04-21T03:40:57.758Z,92622.72
2023-04-21T03:42:30.263Z,92625.91
2023-04-21T03:44:01.758Z,92621.63
2023-04-21T03:45:35.053Z,92622.25
2023-04-21T03:47:06.716Z,92632.44
2023-04-21T03:48:38.168Z,92634.06
2023-04-21T03:50:09.693Z,92623.38
2023-04-21T03:51:41.316Z,92628.53
2023-04-21T03:53:15.675Z,92634.22
2023-04-21T03:54:47.195Z,92640.16
2023-04-21T03:56:18.717Z,92637.69
2023-04-21T03:57:50.343Z,92637.41
2023-04-21T03:59:21.938Z,92640.16
2023-04-21T04:00:53.939Z,92639.16
2023-04-21T04:02:25.863Z,92636.28
2023-04-21T04:03:57.721Z,92639.53
2023-04-21T04:05:29.234Z,92644.34
2023-04-21T04:07:00.771Z,92647.25
2023-04-21T04:08:32.243Z,92651.22
2023-04-21T04:10:03.943Z,92656.84
2023-04-21T04:11:35.658Z,92650.66
2023-04-21T04:13:07.167Z,92652.72
2023-04-21T04:14:39.539Z,92648.09
2023-04-21T04:16:11.275Z,92654.75
2023-04-21T04:17:43.134Z,92657.13
2023-04-21T04:19:14.682Z,92649.91
2023-04-21T04:20:46.213Z,92660.91
2023-04-21T04:22:17.726Z,92648.50
2023-04-21T04:23:51.748Z,92659.38
2023-04-21T04:25:23.540Z,92661.28
2023-04-21T04:26:55.120Z,92658.06
2023-04-21T04:28:26.597Z,92656.78
2023-04-21T04:29:58.065Z,92661.94
2023-04-21T04:31:30.503Z,92658.00
2023-04-21T04:33:02.377Z,92656.50
2023-04-21T04:34:37.614Z,92646.38
2023-04-21T04:36:09.470Z,92657.22
2023-04-21T04:37:41.386Z,92648.47
2023-04-21T04:39:12.927Z,92652.81
2023-04-21T04:40:44.522Z,92657.19
2023-04-21T04:42:15.938Z,92653.03
2023-04-21T04:43:47.665Z,92653.09
2023-04-21T04:45:22.327Z,92663.38
2023-04-21T04:46:56.834Z,92654.63
2023-04-21T04:48:28.429Z,92657.69
2023-04-21T04:49:59.928Z,92659.16
2023-04-21T04:51:32.826Z,92664.41
2023-04-21T04:53:04.317Z,92662.41
2023-04-21T04:54:36.396Z,92663.59
2023-04-21T04:56:07.903Z,92663.47
2023-04-21T04:57:39.416Z,92663.19
2023-04-21T04:59:11.008Z,92659.75
2023-04-21T05:00:42.495Z,92661.09
2023-04-21T05:02:14.189Z,92664.28
2023-04-21T05:03:45.933Z,92656.47
2023-04-21T05:05:17.923Z,92656.22
2023-04-21T05:06:50.059Z,92662.97
2023-04-21T05:08:21.580Z,92659.09
2023-04-21T05:09:53.160Z,92665.75
2023-04-21T05:11:24.987Z,92658.94
2023-04-21T05:12:56.487Z,92663.09
2023-04-21T05:14:27.975Z,92667.84
2023-04-21T05:16:02.088Z,92665.41
2023-04-21T05:17:34.345Z,92665.75
2023-04-21T05:19:06.021Z,92663.38
2023-04-21T05:20:37.577Z,92666.28
2023-04-21T05:22:09.092Z,92659.72
2023-04-21T05:23:40.790Z,92666.72
2023-04-21T05:25:16.139Z,92661.72
2023-04-21T05:26:47.840Z,92656.38
2023-04-21T05:28:19.959Z,92668.88
2023-04-21T05:29:51.885Z,92667.47
2023-04-21T05:31:23.954Z,92665.56
2023-04-21T05:32:55.757Z,92670.31
2023-04-21T05:34:27.309Z,92670.50
2023-04-21T05:35:58.873Z,92666.69
2023-04-21T05:37:30.360Z,92673.97
2023-04-21T05:39:01.900Z,92669.38
2023-04-21T05:40:33.422Z,92674.44
2023-04-21T05:42:05.190Z,92676.97
2023-04-21T05:43:36.743Z,92673.16
2023-04-21T05:45:08.238Z,92668.41
2023-04-21T05:46:39.955Z,92675.56
2023-04-21T05:48:13.424Z,92676.19
2023-04-21T05:49:50.405Z,92665.75
2023-04-21T05:51:22.011Z,92664.81
2023-04-21T05:52:53.491Z,92677.13
2023-04-21T05:54:25.051Z,92680.78
2023-04-21T05:55:56.614Z,92677.75
2023-04-21T05:57:28.069Z,92674.94
2023-04-21T05:58:59.932Z,92676.66
2023-04-21T06:00:31.425Z,92674.53
2023-04-21T06:02:03.995Z,92671.97
2023-04-21T06:03:35.965Z,92672.44
2023-04-21T06:05:11.025Z,92672.56
2023-04-21T06:06:44.415Z,92662.91
2023-04-21T06:08:15.984Z,92671.59
2023-04-21T06:09:50.288Z,92668.16
2023-04-21T06:11:22.542Z,92667.34
2023-04-21T06:12:54.639Z,92674.47
2023-04-21T06:14:26.222Z,92671.78
2023-04-21T06:15:57.817Z,92671.66
2023-04-21T06:17:29.391Z,92673.38
2023-04-21T06:19:01.354Z,92671.34
2023-04-21T06:20:32.908Z,92669.50
2023-04-21T06:22:04.457Z,92676.78
2023-04-21T06:23:36.316Z,92675.38
2023-04-21T06:25:07.998Z,92677.25
2023-04-21T06:26:42.314Z,92667.00
2023-04-21T06:28:13.823Z,92674.28
2023-04-21T06:29:45.360Z,92678.56
2023-04-21T06:31:16.927Z,92665.13
2023-04-21T06:32:48.988Z,92679.38
2023-04-21T06:34:21.771Z,92675.88
2023-04-21T06:35:53.825Z,92671.59
2023-04-21T06:37:25.456Z,92677.94
2023-04-21T06:38:56.977Z,92669.22
2023-04-21T06:40:28.422Z,92676.03
2023-04-21T06:42:00.025Z,92670.97
2023-04-21T06:43:31.687Z,92672.06
2023-04-21T06:45:03.653Z,92676.16
2023-04-21T06:46:35.312Z,92673.81
2023-04-21T06:48:07.014Z,92673.47
2023-04-21T06:49:38.835Z,92672.34
2023-04-21T06:51:10.402Z,92669.97
2023-04-21T06:52:41.891Z,92669.38
2023-04-21T06:54:13.508Z,92677.16
2023-04-21T06:55:45.135Z,92670.47
2023-04-21T06:57:17.460Z,92669.97
2023-04-21T07:01:16.173Z,92664.06
2023-04-21T07:02:47.920Z,92670.41
2023-04-21T07:04:19.607Z,92664.38
2023-04-21T07:05:51.253Z,92668.47
2023-04-21T07:07:23.271Z,92668.66
2023-04-21T07:08:54.779Z,92666.28
2023-04-21T07:10:26.925Z,92671.47
2023-04-21T07:11:58.973Z,92671.66
2023-04-21T07:13:30.574Z,92665.75
2023-04-21T07:15:02.280Z,92670.66
2023-04-21T07:16:33.759Z,92673.16
2023-04-21T07:18:05.568Z,92680.66
2023-04-21T07:19:37.407Z,92682.41
2023-04-21T07:21:08.981Z,92675.63
2023-04-21T07:22:40.552Z,92680.22
2023-04-21T07:24:12.072Z,92679.75
2023-04-21T07:25:43.994Z,92684.50
2023-04-21T07:27:15.786Z,92681.13
2023-04-21T07:28:47.576Z,92686.38
2023-04-21T07:30:19.033Z,92689.66
2023-04-21T07:31:51.862Z,92692.66
2023-04-21T07:33:23.577Z,92684.84
2023-04-21T07:34:55.128Z,92685.00
2023-04-21T07:36:29.965Z,92682.31
2023-04-21T07:38:02.586Z,92683.69
2023-04-21T07:39:34.175Z,92695.13
2023-04-21T07:41:06.220Z,92681.13
2023-04-21T07:42:37.914Z,92681.84
2023-04-21T07:44:09.453Z,92678.97
2023-04-21T07:45:40.923Z,92681.81
2023-04-21T07:47:12.767Z,92684.19
2023-04-21T07:48:45.653Z,92687.69
2023-04-21T07:50:17.234Z,92679.41
2023-04-21T07:51:48.703Z,92684.28
2023-04-21T07:53:20.358Z,92684.22
2023-04-21T07:54:51.977Z,92687.50
2023-04-21T07:56:23.509Z,92690.34
2023-04-21T07:57:55.234Z,92692.09
2023-04-21T07:59:26.731Z,92688.72
2023-04-21T08:00:58.306Z,92691.56
2023-04-21T08:02:29.922Z,92691.38
2023-04-21T08:04:01.619Z,92691.00
2023-04-21T08:05:36.629Z,92686.41
2023-04-21T08:07:10.143Z,92687.50
2023-04-21T08:08:41.884Z,92680.00
2023-04-21T08:10:13.584Z,92687.22
2023-04-21T08:11:45.232Z,92679.63
2023-04-21T08:13:17.196Z,92682.53
2023-04-21T08:14:49.317Z,92678.28
2023-04-21T08:16:20.924Z,92673.72
2023-04-21T08:17:52.544Z,92677.22
2023-04-21T08:19:24.157Z,92676.81
2023-04-21T08:20:58.173Z,92675.78
2023-04-21T08:22:29.840Z,92674.59
2023-04-21T08:24:01.542Z,92667.59
2023-04-21T08:25:33.105Z,92670.41
2023-04-21T08:27:04.631Z,92670.69
2023-04-21T08:28:36.202Z,92673.00
2023-04-21T08:30:08.170Z,92666.22
2023-04-21T08:31:40.510Z,92661.53
2023-04-21T08:33:13.966Z,92658.97
2023-04-21T08:34:45.692Z,92659.41
2023-04-21T08:36:26.394Z,92656.34
2023-04-21T08:38:00.951Z,92660.84
2023-04-21T08:39:32.618Z,92658.34
2023-04-21T08:41:04.493Z,92648.13
2023-04-21T08:42:37.079Z,92646.38
2023-04-21T08:44:09.008Z,92650.94
2023-04-21T08:45:41.187Z,92642.66
2023-04-21T08:47:13.474Z,92644.56
2023-04-21T08:48:45.053Z,92648.81
2023-04-21T08:50:16.757Z,92647.84
2023-04-21T08:51:48.385Z,92640.66
2023-04-21T08:53:19.998Z,92641.97
2023-04-21T08:54:53.434Z,92633.88
2023-04-21T08:56:25.540Z,92629.63
2023-04-21T08:57:57.362Z,92629.22
2023-04-21T08:59:29.266Z,92622.81
2023-04-21T09:01:00.848Z,92624.78
2023-04-21T09:02:32.714Z,92632.25
2023-04-21T09:04:17.496Z,92628.41
2023-04-21T09:05:57.585Z,92631.66
2023-04-21T09:07:33.231Z,92629.00
2023-04-21T09:09:05.688Z,92620.97
2023-04-21T09:10:48.579Z,92618.88
2023-04-21T09:12:20.150Z,92616.31
2023-04-21T09:13:56.885Z,92617.06
2023-04-21T09:15:28.461Z,92615.41
2023-04-21T09:17:01.164Z,92617.44
2023-04-21T09:18:37.014Z,92612.66
2023-04-21T09:20:18.170Z,92614.94
2023-04-21T09:21:49.632Z,92609.28
2023-04-21T09:23:22.052Z,92612.25
2023-04-21T09:24:57.610Z,92608.16
2023-04-21T09:26:29.612Z,92604.81
2023-04-21T09:28:01.184Z,92597.41
2023-04-21T09:29:32.977Z,92599.38
2023-04-21T09:31:04.645Z,92594.59
2023-04-21T09:32:36.864Z,92599.22
2023-04-21T09:34:17.710Z,92590.16
2023-04-21T09:35:49.926Z,92590.00
2023-04-21T09:37:24.606Z,92597.00
2023-04-21T09:39:24.310Z,92591.06
2023-04-21T09:41:00.073Z,92585.78
2023-04-21T09:42:38.960Z,92583.22
2023-04-21T09:44:11.867Z,92578.69
2023-04-21T09:45:43.599Z,92585.22
2023-04-21T09:47:15.638Z,92594.41
2023-04-21T09:48:47.432Z,92578.88
2023-04-21T09:50:26.712Z,92585.09
2023-04-21T09:52:19.133Z,92585.50
2023-04-21T09:53:51.982Z,92596.03
2023-04-21T09:55:27.063Z,92588.72
2023-04-21T09:56:59.305Z,92593.03
2023-04-21T09:58:32.090Z,92596.16
2023-04-21T10:00:12.230Z,92599.88
2023-04-21T10:01:43.809Z,92600.63
2023-04-21T10:03:15.641Z,92596.38
2023-04-21T10:04:47.575Z,92598.31
2023-04-21T10:06:19.537Z,92597.53
2023-04-21T10:07:51.282Z,92595.19
2023-04-21T10:09:23.059Z,92593.91
2023-04-21T10:10:54.678Z,92596.19
2023-04-21T10:12:27.248Z,92595.03
2023-04-21T10:13:58.888Z,92591.25
2023-04-21T10:15:31.751Z,92603.34
2023-04-21T10:17:07.030Z,92600.19
2023-04-21T10:18:39.294Z,92601.00
2023-04-21T10:20:11.037Z,92595.13
2023-04-21T10:21:42.501Z,92599.06
2023-04-21T10:23:25.783Z,92595.13
2023-04-21T10:24:57.792Z,92589.91
2023-04-21T10:26:35.699Z,92585.91
2023-04-21T10:28:07.166Z,92588.94
2023-04-21T10:29:55.385Z,92586.00
2023-04-21T10:31:33.289Z,92586.50
2023-04-21T10:33:05.584Z,92590.19
2023-04-21T10:34:41.594Z,92588.63
2023-04-21T10:36:14.242Z,92587.75
2023-04-21T10:37:45.764Z,92588.09
2023-04-21T10:39:26.486Z,92586.88
2023-04-21T10:41:09.384Z,92588.03
2023-04-21T10:42:40.974Z,92582.97
2023-04-21T10:44:13.131Z,92588.75
2023-04-21T10:45:44.660Z,92585.81
2023-04-21T10:47:16.853Z,92583.28
2023-04-21T10:48:54.484Z,92584.56
2023-04-21T10:50:29.918Z,92588.00
2023-04-21T10:52:02.785Z,92579.31
2023-04-21T10:53:41.160Z,92582.31
2023-04-21T10:55:15.800Z,92579.53
2023-04-21T10:56:47.482Z,92582.31
2023-04-21T10:58:19.074Z,92586.31
2023-04-21T10:59:50.958Z,92582.56
2023-04-21T11:01:22.533Z,92574.63
2023-04-21T11:03:03.797Z,92573.72
2023-04-21T11:04:35.786Z,92573.59
2023-04-21T11:06:18.174Z,92576.97
2023-04-21T11:07:49.667Z,92566.22
2023-04-21T11:09:21.191Z,92567.41
2023-04-21T11:10:54.596Z,92564.16
2023-04-21T11:12:32.850Z,92569.94
2023-04-21T11:14:04.463Z,92567.69
2023-04-21T11:15:36.712Z,92573.25
2023-04-21T11:17:11.745Z,92573.47
2023-04-21T11:18:44.001Z,92568.06
2023-04-21T11:20:15.999Z,92568.28
2023-04-21T11:21:51.637Z,92563.16
2023-04-21T11:23:23.180Z,92561.91
2023-04-21T11:24:55.764Z,92559.63
2023-04-21T11:26:33.780Z,92559.41
2023-04-21T11:28:06.632Z,92563.72
2023-04-21T11:29:39.196Z,92564.16
2023-04-21T11:31:10.921Z,92550.91
2023-04-21T11:32:42.828Z,92549.16
2023-04-21T11:34:15.793Z,92556.81
2023-04-21T11:35:47.447Z,92565.94
2023-04-21T11:37:23.722Z,92553.88
2023-04-21T11:38:55.477Z,92562.16
2023-04-21T11:40:27.063Z,92562.78
2023-04-21T11:41:58.600Z,92561.38
2023-04-21T11:43:30.066Z,92569.31
2023-04-21T11:45:01.566Z,92571.44
2023-04-21T11:46:33.682Z,92575.09
2023-04-21T11:48:15.779Z,92574.53
2023-04-21T11:49:47.943Z,92571.25
2023-04-21T11:51:22.178Z,92565.31
2023-04-21T11:52:53.955Z,92572.56
2023-04-21T11:54:25.666Z,92573.75
2023-04-21T11:55:58.047Z,92574.19
2023-04-21T11:57:30.289Z,92573.81
2023-04-21T11:59:02.332Z,92574.91
2023-04-21T12:00:33.828Z,92570.88
2023-04-21T12:02:05.600Z,92574.59
2023-04-21T12:03:37.330Z,92566.72
2023-04-21T12:05:09.458Z,92570.31
2023-04-21T12:06:41.305Z,92564.88
2023-04-21T12:08:16.182Z,92561.50
2023-04-21T12:09:51.220Z,92567.13
2023-04-21T12:11:23.847Z,92561.03
2023-04-21T12:12:56.369Z,92572.88
2023-04-21T12:14:27.876Z,92557.56
2023-04-21T12:16:02.399Z,92562.84
2023-04-21T12:17:38.491Z,92551.00
2023-04-21T12:19:13.115Z,92552.03
2023-04-21T12:20:51.426Z,92549.13
2023-04-21T12:22:23.729Z,92547.03
2023-04-21T12:23:55.378Z,92547.59
2023-04-21T12:25:26.847Z,92557.13
2023-04-21T12:26:58.424Z,92548.16
2023-04-21T12:28:29.928Z,92549.59
2023-04-21T12:30:01.730Z,92550.38
2023-04-21T12:31:33.924Z,92551.16
2023-04-21T12:33:05.620Z,92553.47
2023-04-21T12:34:37.363Z,92557.25
2023-04-21T12:36:08.912Z,92558.03
2023-04-21T12:37:40.711Z,92546.66
2023-04-21T12:39:13.545Z,92553.81
2023-04-21T12:40:45.132Z,92551.19
2023-04-21T12:42:16.771Z,92552.03
2023-04-21T12:43:48.410Z,92555.28
2023-04-21T12:45:20.020Z,92548.00
2023-04-21T12:46:52.161Z,92544.06
2023-04-21T12:48:24.363Z,92544.28
2023-04-21T12:49:56.552Z,92541.59
2023-04-21T12:51:28.069Z,92540.53
2023-04-21T12:52:59.825Z,92537.81
2023-04-21T12:54:31.848Z,92529.66
2023-04-21T12:56:05.216Z,92525.34
2023-04-21T12:57:37.279Z,92533.63
2023-04-21T12:59:10.494Z,92526.94
2023-04-21T13:00:42.862Z,92527.91
2023-04-21T13:02:14.468Z,92529.69
2023-04-21T13:03:46.400Z,92532.56
2023-04-21T13:05:18.047Z,92530.44
2023-04-21T13:06:49.577Z,92527.03
2023-04-21T13:08:24.235Z,92526.31
2023-04-21T13:09:56.052Z,92520.69
2023-04-21T13:11:27.768Z,92522.81
2023-04-21T13:12:59.371Z,92521.38
2023-04-21T13:14:31.191Z,92527.31
2023-04-21T13:16:02.898Z,92531.28
2023-04-21T13:17:34.556Z,92523.38
2023-04-21T13:19:06.497Z,92523.09
2023-04-21T13:20:38.122Z,92524.59
2023-04-21T13:22:09.617Z,92526.09
2023-04-21T13:23:41.484Z,92524.59
2023-04-21T13:25:13.092Z,92532.38
2023-04-21T13:26:44.924Z,92525.72
2023-04-21T13:28:17.758Z,92523.94
2023-04-21T13:29:49.458Z,92527.53
2023-04-21T13:31:21.527Z,92520.69
2023-04-21T13:32:53.085Z,92519.44
2023-04-21T13:34:24.757Z,92515.66
2023-04-21T13:35:56.386Z,92519.69
2023-04-21T13:37:28.304Z,92521.94
2023-04-21T13:39:00.825Z,92509.31
2023-04-21T13:40:32.375Z,92518.50
2023-04-21T13:42:04.135Z,92514.06
2023-04-21T13:43:35.852Z,92519.34
2023-04-21T13:45:07.771Z,92503.13
2023-04-21T13:46:39.337Z,92500.94
2023-04-21T13:48:11.548Z,92502.53
2023-04-21T13:49:43.534Z,92497.47
2023-04-21T13:51:15.070Z,92506.06
2023-04-21T13:52:47.082Z,92501.03
2023-04-21T13:54:18.665Z,92494.00
2023-04-21T13:55:50.736Z,92487.03
2023-04-21T13:57:22.372Z,92491.34
2023-04-21T13:58:55.286Z,92496.16
2023-04-21T14:00:27.331Z,92491.59
2023-04-21T14:01:58.977Z,92500.63
2023-04-21T14:03:30.963Z,92495.25
2023-04-21T14:05:03.136Z,92495.28
2023-04-21T14:06:34.824Z,92492.53
2023-04-21T14:08:06.395Z,92495.28
2023-04-21T14:09:37.946Z,92493.28
2023-04-21T14:11:09.463Z,92489.88
2023-04-21T14:12:40.985Z,92503.19
2023-04-21T14:14:15.264Z,92490.34
2023-04-21T14:15:48.470Z,92491.16
2023-04-21T14:17:19.952Z,92488.09
2023-04-21T14:18:51.881Z,92501.00
2023-04-21T14:20:23.466Z,92492.03
2023-04-21T14:21:55.135Z,92489.28
2023-04-21T14:23:26.677Z,92495.56
2023-04-21T14:24:58.587Z,92501.38
2023-04-21T14:26:30.284Z,92491.56
2023-04-21T14:28:02.083Z,92493.19
2023-04-21T14:29:33.942Z,92491.63
2023-04-21T14:31:05.831Z,92488.06
2023-04-21T14:32:37.995Z,92489.22
2023-04-21T14:34:09.682Z,92477.53
2023-04-21T14:35:42.200Z,92476.78
2023-04-21T14:37:14.261Z,92481.03
2023-04-21T14:38:45.868Z,92477.47
2023-04-21T14:40:17.950Z,92481.34
2023-04-21T14:41:49.421Z,92474.34
2023-04-21T14:43:21.378Z,92482.13
2023-04-21T14:44:52.912Z,92482.56
2023-04-21T14:46:24.433Z,92472.03
2023-04-21T14:47:56.069Z,92472.88
2023-04-21T14:49:28.184Z,92474.06
2023-04-21T14:50:59.989Z,92474.84
2023-04-21T14:52:31.967Z,92467.78
2023-04-21T14:54:03.580Z,92472.44
2023-04-21T14:55:35.070Z,92472.81
2023-04-21T14:57:19.927Z,92479.47
2023-04-21T14:58:52.703Z,92465.00
2023-04-21T15:00:24.483Z,92472.03
2023-04-21T15:01:56.389Z,92465.75
2023-04-21T15:03:28.158Z,92470.81
2023-04-21T15:04:59.797Z,92467.22
2023-04-21T15:06:31.742Z,92465.59
2023-04-21T15:08:03.302Z,92471.75
2023-04-21T15:09:36.299Z,92465.44
2023-04-21T15:11:08.259Z,92470.06
2023-04-21T15:12:41.302Z,92469.19
2023-04-21T15:14:13.202Z,92466.41
2023-04-21T15:15:45.658Z,92471.38
2023-04-21T15:17:17.187Z,92464.63
2023-04-21T15:18:48.766Z,92470.28
2023-04-21T15:20:29.491Z,92463.22
2023-04-21T15:22:08.409Z,92467.78
2023-04-21T15:23:40.363Z,92472.44
2023-04-21T15:25:11.939Z,92477.91
2023-04-21T15:26:43.727Z,92483.00
2023-04-21T15:28:15.370Z,92471.72
2023-04-21T15:29:46.915Z,92465.84
2023-04-21T15:31:18.889Z,92468.56
2023-04-21T15:32:50.535Z,92476.47
2023-04-21T15:34:22.208Z,92481.16
2023-04-21T15:35:53.974Z,92478.78
2023-04-21T15:37:25.999Z,92479.53
2023-04-21T15:38:57.889Z,92474.84
2023-04-21T15:40:29.745Z,92479.53
2023-04-21T15:42:01.922Z,92470.56
2023-04-21T15:43:33.709Z,92481.41
2023-04-21T15:45:05.489Z,92478.59
2023-04-21T15:46:37.198Z,92482.06
2023-04-21T15:59:58.930Z,92470.81
2023-04-21T16:01:30.556Z,92474.09
2023-04-21T16:03:02.349Z,92481.09
2023-04-21T16:04:34.345Z,92474.88
2023-04-21T16:06:06.737Z,92481.03
2023-04-21T16:07:38.384Z,92481.09
2023-04-21T16:09:11.019Z,92477.69
2023-04-21T16:10:42.715Z,92479.38
2023-04-21T16:12:14.357Z,92474.41
2023-04-21T16:13:46.587Z,92474.78
2023-04-21T16:15:24.264Z,92482.22
2023-04-21T16:16:56.713Z,92479.16
2023-04-21T16:18:28.482Z,92483.41
2023-04-21T16:20:00.593Z,92478.75
2023-04-21T16:21:32.168Z,92475.16
2023-04-21T16:23:04.913Z,92480.84
2023-04-21T16:24:36.824Z,92479.88
2023-04-21T16:26:09.294Z,92476.66
2023-04-21T16:27:40.926Z,92478.06
2023-04-21T16:29:12.409Z,92486.50
2023-04-21T16:30:44.135Z,92481.00
2023-04-21T16:32:15.719Z,92486.69
2023-04-21T16:33:47.387Z,92487.28
2023-04-21T16:35:19.031Z,92478.88
2023-04-21T16:36:51.074Z,92480.63
2023-04-21T16:38:23.302Z,92484.78
2023-04-21T16:39:55.063Z,92478.69
2023-04-21T16:41:26.925Z,92478.94
2023-04-21T16:42:58.606Z,92485.72
2023-04-21T16:44:30.290Z,92489.88
2023-04-21T16:46:02.185Z,92483.22
2023-04-21T16:47:40.433Z,92483.94
2023-04-21T16:49:14.031Z,92490.09
2023-04-21T16:50:45.688Z,92492.38
2023-04-21T16:52:17.268Z,92488.34
2023-04-21T16:53:48.859Z,92491.44
2023-04-21T16:55:20.398Z,92489.88
2023-04-21T16:56:51.954Z,92488.94
2023-04-21T16:58:24.640Z,92498.06
2023-04-21T16:59:56.292Z,92496.44
2023-04-21T17:01:27.933Z,92489.34
2023-04-21T17:02:59.693Z,92496.91
2023-04-21T17:04:31.537Z,92498.22
2023-04-21T17:06:05.116Z,92503.41
2023-04-21T17:07:36.735Z,92496.50
2023-04-21T17:09:08.709Z,92502.03
2023-04-21T17:10:40.206Z,92496.72
2023-04-21T17:12:12.310Z,92499.06
2023-04-21T17:13:44.052Z,92502.31
2023-04-21T17:15:16.192Z,92508.97
2023-04-21T17:16:47.793Z,92512.00
2023-04-21T17:18:19.413Z,92512.81
2023-04-21T17:19:52.492Z,92513.16
2023-04-21T17:21:24.123Z,92508.84
2023-04-21T17:22:55.831Z,92510.44
2023-04-21T17:24:31.241Z,92517.25
2023-04-21T17:26:12.420Z,92510.50
2023-04-21T17:27:44.606Z,92517.06
2023-04-21T17:29:16.125Z,92513.91
2023-04-21T17:30:47.697Z,92507.97
2023-04-21T17:32:19.849Z,92515.09
2023-04-21T17:33:53.419Z,92513.31
2023-04-21T17:35:25.006Z,92517.88
2023-04-21T17:36:56.792Z,92523.97
2023-04-21T17:38:28.914Z,92522.63
2023-04-21T17:40:02.844Z,92519.41
2023-04-21T17:41:34.881Z,92523.13
2023-04-21T17:43:06.482Z,92524.53
2023-04-21T17:44:40.114Z,92530.19
2023-04-21T17:46:12.446Z,92525.03
2023-04-21T17:47:44.015Z,92530.00
2023-04-21T17:49:17.457Z,92532.34
2023-04-21T17:50:49.096Z,92524.47
2023-04-21T17:52:20.705Z,92530.94
2023-04-21T17:53:52.772Z,92533.41
2023-04-21T17:55:24.357Z,92539.88
2023-04-21T17:56:56.498Z,92538.97
2023-04-21T17:58:28.157Z,92549.94
2023-04-21T17:59:59.726Z,92542.38
2023-04-21T18:01:31.340Z,92543.16
2023-04-21T18:03:03.397Z,92552.97
2023-04-21T18:04:35.245Z,92548.56
2023-04-21T18:06:07.527Z,92561.41
2023-04-21T18:07:40.385Z,92551.84
2023-04-21T18:09:12.476Z,92560.75
2023-04-21T18:10:44.387Z,92557.03
2023-04-21T18:12:16.434Z,92559.50
2023-04-21T18:13:47.968Z,92561.66
2023-04-21T18:15:19.719Z,92554.88
2023-04-21T18:16:51.607Z,92555.22
2023-04-21T18:18:23.311Z,92561.19
2023-04-21T18:19:54.847Z,92563.56